Weather reports worldwide

Advertisment
Isola Di Salina, Italy (16415): temperature & dewpoint: 19.02.2018 09:00:00 - 25.02.2018 09:00:00 (CET)Isola Di Salina, Italy (16415): wind speed: 19.02.2018 09:00:00 - 25.02.2018 09:00:00 (CET)Isola Di Salina, Italy (16415): wind direction: 19.02.2018 09:00:00 - 25.02.2018 09:00:00 (CET)Isola Di Salina, Italy (16415): reduced air pressure: 19.02.2018 09:00:00 - 25.02.2018 09:00:00 (CET)Isola Di Salina, Italy (16415): precipitation: 19.02.2018 09:00:00 - 25.02.2018 09:00:00 (CET)
Date & Time tt [°C] td [°C] ff [km/h] ff [kn] dd ppp [hPa] rr [mm]
25.02.2018 09:00:00 - - - - - - -
25.02.2018 08:00:00 7,8 6,7 15 8 S 1006,4 -
25.02.2018 07:00:00 8,0 6,6 9 5 S 1006,2 0,0
25.02.2018 06:00:00 8,5 6,3 2 1 S 1006,6 -
25.02.2018 05:00:00 8,8 6,4 11 6 S 1006,4 -
25.02.2018 04:00:00 9,0 7,4 13 7 S 1007,3 -
25.02.2018 03:00:00 9,9 7,3 8 4 SSW 1008,0 -
25.02.2018 02:00:00 9,7 7,4 11 6 S 1008,4 -
25.02.2018 01:00:00 8,9 6,1 4 2 S 1008,7 0,0
25.02.2018 00:00:00 8,6 5,5 2 1 S 1008,9 -
24.02.2018 23:00:00 8,6 5,1 2 1 SW 1009,4 -
24.02.2018 22:00:00 9,0 5,5 4 2 W 1009,7 -
24.02.2018 21:00:00 8,8 4,6 9 5 W 1009,6 -
24.02.2018 20:00:00 9,0 4,9 11 6 W 1009,0 -
24.02.2018 19:00:00 9,0 4,4 11 6 WNW 1009,0 0,0
24.02.2018 18:00:00 9,6 4,3 15 8 WNW 1008,4 -
24.02.2018 17:00:00 10,5 5,2 15 8 WNW 1008,2 -
24.02.2018 16:00:00 11,1 4,9 22 12 NW 1007,7 -
24.02.2018 15:00:00 12,0 6,0 22 12 NW 1007,5 -
24.02.2018 14:00:00 12,0 5,8 22 12 WNW 1007,6 -
24.02.2018 13:00:00 12,6 6,8 22 12 WNW 1007,7 0,0
24.02.2018 12:00:00 12,9 7,9 16 9 WNW 1007,5 -
24.02.2018 11:00:00 12,5 7,1 16 9 W 1007,2 -
24.02.2018 10:00:00 11,1 6,2 22 12 W 1007,2 -
24.02.2018 09:00:00 10,2 5,5 24 13 W 1006,8 -
24.02.2018 08:00:00 9,9 6,6 24 13 W 1005,8 -
24.02.2018 07:00:00 9,6 7,0 18 10 W 1004,7 -
24.02.2018 06:00:00 9,4 7,3 21 11 W 1004,0 -
24.02.2018 05:00:00 8,7 7,3 0 0 N 1003,7 -
24.02.2018 04:00:00 7,7 5,8 18 10 W 1003,5 -
24.02.2018 03:00:00 8,8 7,2 16 9 WNW 1002,1 -
24.02.2018 02:00:00 9,1 7,2 0 0 N 1001,8 -
24.02.2018 01:00:00 9,0 7,4 0 0 N 1001,0 -
24.02.2018 00:00:00 8,3 6,9 0 0 N 1000,3 -
23.02.2018 23:00:00 8,3 7,2 15 8 N 1000,5 -
23.02.2018 22:00:00 7,9 7,0 18 10 W 1000,3 -
23.02.2018 21:00:00 7,9 7,1 24 13 W 999,2 -
23.02.2018 20:00:00 8,5 7,7 21 11 W 998,2 -
23.02.2018 19:00:00 8,9 8,0 24 13 WNW 997,4 -
23.02.2018 18:00:00 10,2 9,3 16 9 W 996,5 -
23.02.2018 17:00:00 11,3 10,5 15 8 SW 996,0 -
23.02.2018 16:00:00 11,2 10,6 16 9 SSE 995,3 -
23.02.2018 15:00:00 11,1 10,5 29 16 SSE 995,6 -
23.02.2018 14:00:00 10,5 9,7 22 12 SSE 996,6 -
23.02.2018 13:00:00 11,0 9,9 22 12 SSE 997,3 -
23.02.2018 12:00:00 12,9 11,1 37 20 SSE 997,3 -
23.02.2018 11:00:00 13,1 10,6 50 27 SE 997,9 -
23.02.2018 10:00:00 12,9 11,5 46 25 SSE 998,0 -
23.02.2018 09:00:00 11,6 10,3 29 16 SSE 998,7 -
23.02.2018 08:00:00 11,3 10,0 21 11 SSE 999,4 -
23.02.2018 07:00:00 12,4 10,8 31 17 SSE 998,8 -
23.02.2018 06:00:00 12,7 8,5 22 12 SSE 999,3 -
23.02.2018 05:00:00 12,5 10,9 18 10 S 999,7 -
23.02.2018 04:00:00 12,5 11,1 24 13 SE 999,6 -
23.02.2018 03:00:00 12,3 10,7 11 6 S 1000,5 -
23.02.2018 02:00:00 12,2 9,9 16 9 SSE 1000,8 -
23.02.2018 01:00:00 12,4 7,8 18 10 S 1001,5 0,0
23.02.2018 00:00:00 12,0 7,5 11 6 S 1002,0 -
22.02.2018 23:00:00 11,9 7,2 8 4 SSE 1002,4 -
22.02.2018 22:00:00 11,5 6,2 9 5 S 1002,3 -
22.02.2018 21:00:00 11,2 5,9 8 4 S 1002,3 -
22.02.2018 20:00:00 11,3 5,8 9 5 S 1002,1 -
22.02.2018 19:00:00 11,1 6,6 13 7 S 1002,1 -
22.02.2018 18:00:00 11,0 7,5 16 9 S 1001,8 -
22.02.2018 17:00:00 11,0 7,8 15 8 S 1002,3 -
22.02.2018 16:00:00 11,2 7,5 26 14 S 1001,9 -
22.02.2018 15:00:00 12,1 6,1 26 14 SSE 1001,9 -
22.02.2018 14:00:00 12,6 5,7 18 10 S 1001,7 -
22.02.2018 13:00:00 12,5 6,0 31 17 S 1001,7 -
22.02.2018 12:00:00 13,1 5,4 21 11 S 1002,1 -
22.02.2018 11:00:00 13,3 6,3 26 14 S 1002,2 -
22.02.2018 10:00:00 12,5 7,1 21 11 NNE 1002,0 -
22.02.2018 09:00:00 11,3 7,0 26 14 SE 1002,0 -
22.02.2018 08:00:00 9,7 6,9 21 11 SE 1002,3 -
22.02.2018 07:00:00 9,0 6,2 16 9 SSE 1002,4 0,0
22.02.2018 06:00:00 8,5 5,2 13 7 S 1002,8 -
22.02.2018 05:00:00 8,3 4,3 9 5 S 1003,2 -
22.02.2018 04:00:00 7,4 2,2 4 2 SSW 1003,2 -
22.02.2018 03:00:00 8,1 3,1 2 1 S 1003,8 -
22.02.2018 02:00:00 8,0 2,6 2 1 SSW 1004,0 -
22.02.2018 01:00:00 8,3 2,9 4 2 SSW 1003,9 0,0
22.02.2018 00:00:00 8,4 2,8 9 5 WSW 1003,9 -
21.02.2018 23:00:00 8,6 3,4 9 5 WSW 1003,9 -
21.02.2018 22:00:00 8,4 4,0 13 7 W 1003,3 -
21.02.2018 21:00:00 8,6 3,8 11 6 WNW 1002,9 -
21.02.2018 20:00:00 8,6 4,7 16 9 W 1002,3 -
21.02.2018 19:00:00 8,5 4,7 13 7 W 1001,6 0,0
21.02.2018 18:00:00 8,7 6,1 11 6 WSW 1001,2 -
21.02.2018 17:00:00 8,8 6,0 15 8 W 1000,6 -
21.02.2018 16:00:00 9,6 6,1 9 5 W 1000,4 -
21.02.2018 15:00:00 10,0 6,1 13 7 WNW 1000,2 -
21.02.2018 14:00:00 10,3 7,5 13 7 WNW 999,9 -
21.02.2018 13:00:00 10,2 7,6 18 10 WNW 999,8 0,0
21.02.2018 12:00:00 10,3 8,4 21 11 NW 1000,2 -
21.02.2018 11:00:00 8,6 7,0 18 10 WNW 1000,4 -
21.02.2018 10:00:00 8,4 7,0 21 11 WNW 999,8 -
21.02.2018 09:00:00 9,2 7,8 13 7 WNW 999,2 -
21.02.2018 08:00:00 8,0 6,4 5 3 WSW 999,3 -
21.02.2018 07:00:00 8,0 6,4 5 3 W 999,0 -
21.02.2018 06:00:00 8,1 6,5 8 4 S 998,7 -
21.02.2018 05:00:00 7,8 6,6 9 5 S 999,1 -
21.02.2018 04:00:00 7,3 5,9 5 3 SSW 999,7 -
21.02.2018 03:00:00 7,3 5,9 9 5 S 1000,1 -
21.02.2018 02:00:00 7,9 5,7 9 5 SSW 1001,3 -
21.02.2018 01:00:00 8,7 5,9 5 3 S 1001,4 0,0
21.02.2018 00:00:00 8,3 5,5 5 3 SSW 1001,9 -
20.02.2018 23:00:00 8,2 4,4 5 3 S 1002,4 -
20.02.2018 22:00:00 7,7 3,9 4 2 SSW 1003,4 -
20.02.2018 21:00:00 7,9 4,4 9 5 W 1003,9 -
20.02.2018 20:00:00 8,4 5,6 5 3 WSW 1004,2 -
20.02.2018 19:00:00 8,6 6,7 11 6 WSW 1004,5 -
20.02.2018 18:00:00 8,7 7,1 9 5 W 1004,6 -
20.02.2018 17:00:00 9,2 7,8 15 8 WNW 1004,5 -
20.02.2018 16:00:00 9,8 8,4 13 7 NW 1004,8 -
20.02.2018 15:00:00 9,9 8,8 9 5 W 1005,4 -
20.02.2018 14:00:00 9,9 8,6 9 5 NW 1006,1 -
20.02.2018 13:00:00 10,2 8,6 8 4 NNW 1007,0 -
20.02.2018 12:00:00 11,2 7,8 4 2 NNE 1007,6 -
20.02.2018 11:00:00 12,1 8,7 5 3 SE 1008,2 -
20.02.2018 10:00:00 11,7 9,8 2 1 NNW 1008,5 -
20.02.2018 09:00:00 11,1 9,8 4 2 NW 1008,9 -
20.02.2018 08:00:00 9,5 8,4 8 4 WSW 1009,2 -
20.02.2018 07:00:00 9,2 8,1 8 4 WSW 1009,1 -
20.02.2018 06:00:00 9,2 8,3 8 4 WSW 1009,4 -
20.02.2018 05:00:00 9,3 8,4 8 4 WNW 1009,4 -
20.02.2018 04:00:00 9,1 8,2 5 3 W 1009,8 -
20.02.2018 03:00:00 9,4 8,6 2 1 SSW 1010,1 -
20.02.2018 02:00:00 9,8 8,9 5 3 WNW 1010,6 -
20.02.2018 01:00:00 10,2 9,1 15 8 W 1011,0 -
20.02.2018 00:00:00 10,4 9,1 5 3 W 1010,9 -
19.02.2018 23:00:00 10,5 9,2 8 4 WNW 1011,3 -
19.02.2018 22:00:00 10,7 9,6 9 5 NW 1011,4 -
19.02.2018 21:00:00 10,9 10,0 15 8 NW 1011,5 -
19.02.2018 20:00:00 11,2 10,3 15 8 NW 1011,4 -
19.02.2018 19:00:00 11,2 10,3 18 10 NW 1011,1 -
19.02.2018 18:00:00 11,0 9,9 15 8 WNW 1011,1 -
19.02.2018 17:00:00 11,5 10,4 16 9 WNW 1010,9 -
19.02.2018 16:00:00 11,9 10,8 16 9 NW 1010,9 -
19.02.2018 15:00:00 12,3 11,0 15 8 WNW 1011,0 -
19.02.2018 14:00:00 12,3 10,7 18 10 WNW 1011,2 -
19.02.2018 13:00:00 12,5 11,4 15 8 WNW 1011,6 -
19.02.2018 12:00:00 11,9 11,1 11 6 WNW 1012,3 -
19.02.2018 11:00:00 11,0 10,4 0 0 N 1012,6 -
19.02.2018 10:00:00 10,5 9,7 2 1 SSE 1012,8 -
19.02.2018 09:00:00 10,1 9,0 9 5 S 1012,8 -

tt = temperature
td = dewpoint
ff = wind speed
dd = wind direction
ppp = reduced air pressure
rr = precipitation

Next stations